createdAt,value
2018-07-25T00:00:20.098Z,0.00
2018-07-25T00:01:20.070Z,0.00
2018-07-25T00:02:20.051Z,0.00
2018-07-25T00:03:20.030Z,0.00
2018-07-25T00:04:20.010Z,0.00
2018-07-25T00:05:19.990Z,0.00
2018-07-25T00:06:19.968Z,0.00
2018-07-25T00:07:19.952Z,0.00
2018-07-25T00:08:19.928Z,0.00
2018-07-25T00:09:19.908Z,0.00
2018-07-25T00:10:19.889Z,0.00
2018-07-25T00:11:19.868Z,0.00
2018-07-25T00:12:19.847Z,0.00
2018-07-25T00:13:19.829Z,0.00
2018-07-25T00:14:20.009Z,0.00
2018-07-25T00:15:19.989Z,0.00
2018-07-25T00:16:19.767Z,0.00
2018-07-25T00:17:19.745Z,0.00
2018-07-25T00:18:19.727Z,0.00
2018-07-25T00:19:19.707Z,0.00
2018-07-25T00:20:19.686Z,0.00
2018-07-25T00:21:19.685Z,0.00
2018-07-25T00:22:19.644Z,0.00
2018-07-25T00:23:19.624Z,0.00
2018-07-25T00:24:19.602Z,0.00
2018-07-25T00:25:19.586Z,0.00
2018-07-25T00:26:19.568Z,0.00
2018-07-25T00:27:19.645Z,0.00
2018-07-25T00:28:19.524Z,0.00
2018-07-25T00:29:19.503Z,0.00
2018-07-25T00:30:19.485Z,0.00
2018-07-25T00:31:19.462Z,0.00
2018-07-25T00:32:19.440Z,0.00
2018-07-25T00:33:19.420Z,0.00
2018-07-25T00:34:19.409Z,0.00
2018-07-25T00:35:19.386Z,0.00
2018-07-25T00:36:19.389Z,0.00
2018-07-25T00:37:19.337Z,0.00
2018-07-25T00:38:19.320Z,0.00
2018-07-25T00:39:19.303Z,0.00
2018-07-25T00:40:19.279Z,0.00
2018-07-25T00:41:19.260Z,0.00
2018-07-25T00:42:19.237Z,0.00
2018-07-25T00:43:19.219Z,0.00
2018-07-25T00:44:19.404Z,0.00
2018-07-25T00:45:19.175Z,0.00
2018-07-25T00:46:19.158Z,0.00
2018-07-25T00:47:19.141Z,0.00
2018-07-25T00:48:19.118Z,0.00
2018-07-25T00:49:19.096Z,0.00
2018-07-25T00:50:19.226Z,0.00
2018-07-25T00:51:19.059Z,0.00
2018-07-25T00:52:19.035Z,0.00
2018-07-25T00:53:19.014Z,0.00
2018-07-25T00:54:18.993Z,0.00
2018-07-25T00:55:18.975Z,0.00
2018-07-25T00:56:18.953Z,0.00
2018-07-25T00:57:18.932Z,0.00
2018-07-25T00:58:18.919Z,0.00
2018-07-25T00:59:18.897Z,0.00
2018-07-25T01:00:18.872Z,0.00
2018-07-25T01:01:19.054Z,0.00
2018-07-25T01:02:19.038Z,0.00
2018-07-25T01:03:18.809Z,0.00
2018-07-25T01:04:18.788Z,0.00
2018-07-25T01:05:18.771Z,0.00
2018-07-25T01:06:18.753Z,0.00
2018-07-25T01:07:18.732Z,0.00
2018-07-25T01:08:18.709Z,0.00
2018-07-25T01:09:18.685Z,0.00
2018-07-25T01:10:18.669Z,0.00
2018-07-25T01:11:18.647Z,0.00
2018-07-25T01:12:18.632Z,0.00
2018-07-25T01:13:18.607Z,0.00
2018-07-25T01:14:18.590Z,0.00
2018-07-25T01:15:18.565Z,0.00
2018-07-25T01:16:18.745Z,0.00
2018-07-25T01:17:18.725Z,0.00
2018-07-25T01:18:18.505Z,0.00
2018-07-25T01:19:18.487Z,0.00
2018-07-25T01:20:18.463Z,0.00
2018-07-25T01:21:18.444Z,0.00
2018-07-25T01:22:18.625Z,0.00
2018-07-25T01:23:18.605Z,0.00
2018-07-25T01:24:18.387Z,0.00
2018-07-25T01:25:18.361Z,0.00
2018-07-25T01:26:18.339Z,0.00
2018-07-25T01:27:18.319Z,0.00
2018-07-25T01:28:18.297Z,0.00
2018-07-25T01:29:18.277Z,0.00
2018-07-25T01:30:18.265Z,0.00
2018-07-25T01:31:18.239Z,0.00
2018-07-25T01:32:18.219Z,0.00
2018-07-25T01:33:18.201Z,0.00
2018-07-25T01:34:18.177Z,0.00
2018-07-25T01:35:18.156Z,0.00
2018-07-25T01:36:18.134Z,0.00
2018-07-25T01:37:18.113Z,0.00
2018-07-25T01:38:18.094Z,0.00
2018-07-25T01:39:18.077Z,0.00
2018-07-25T01:40:18.056Z,0.00
2018-07-25T01:41:18.032Z,0.00
2018-07-25T01:42:18.016Z,0.00
2018-07-25T01:43:17.994Z,0.00
2018-07-25T01:44:17.973Z,0.00
2018-07-25T01:45:17.953Z,0.00
2018-07-25T01:46:17.930Z,0.00
2018-07-25T01:47:17.912Z,0.00
2018-07-25T01:48:17.888Z,0.00
2018-07-25T01:49:17.868Z,0.00
2018-07-25T01:50:17.849Z,0.00
2018-07-25T01:51:18.037Z,0.00
2018-07-25T01:52:17.809Z,0.00
2018-07-25T01:53:17.789Z,0.00
2018-07-25T01:54:17.769Z,0.00
2018-07-25T01:55:17.949Z,0.00
2018-07-25T01:56:17.728Z,0.00
2018-07-25T01:57:17.911Z,0.00
2018-07-25T01:58:18.694Z,0.00
2018-07-25T01:59:17.866Z,0.00
2018-07-25T02:00:17.642Z,0.00
2018-07-25T02:01:17.631Z,0.00
2018-07-25T02:02:17.604Z,0.00
2018-07-25T02:03:17.582Z,0.00
2018-07-25T02:04:17.568Z,0.00
2018-07-25T02:05:17.541Z,0.00
2018-07-25T02:06:17.520Z,0.00
2018-07-25T02:07:17.532Z,0.00
2018-07-25T02:08:17.535Z,0.00
2018-07-25T02:09:17.463Z,0.00
2018-07-25T02:10:17.437Z,0.00
2018-07-25T02:11:17.416Z,0.00
2018-07-25T02:12:17.393Z,0.00
2018-07-25T02:13:17.374Z,0.00
2018-07-25T02:14:17.356Z,0.00
2018-07-25T02:15:17.338Z,0.00
2018-07-25T02:16:17.314Z,0.00
2018-07-25T02:17:17.294Z,0.00
2018-07-25T02:18:17.275Z,0.00
2018-07-25T02:19:17.253Z,0.00
2018-07-25T02:20:17.230Z,0.00
2018-07-25T02:21:17.213Z,0.00
2018-07-25T02:22:17.192Z,0.00
2018-07-25T02:23:17.170Z,0.00
2018-07-25T02:24:17.149Z,0.00
2018-07-25T02:25:17.127Z,0.00
2018-07-25T02:26:17.106Z,0.00
2018-07-25T02:27:17.092Z,0.00
2018-07-25T02:28:17.266Z,0.00
2018-07-25T02:29:17.046Z,0.00
2018-07-25T02:30:17.029Z,0.00
2018-07-25T02:31:17.006Z,0.00
2018-07-25T02:32:16.984Z,4.00
2018-07-25T02:33:16.963Z,4.00
2018-07-25T02:34:16.950Z,4.00
2018-07-25T02:35:16.926Z,0.00
2018-07-25T02:36:17.050Z,0.00
2018-07-25T02:37:16.882Z,4.00
2018-07-25T02:38:16.866Z,4.00
2018-07-25T02:39:16.837Z,0.00
2018-07-25T02:40:16.817Z,4.00
2018-07-25T02:41:16.797Z,4.00
2018-07-25T02:42:16.815Z,4.00
2018-07-25T02:43:16.762Z,8.00
2018-07-25T02:44:16.736Z,8.00
2018-07-25T02:45:16.713Z,8.00
2018-07-25T02:46:16.691Z,12.00
2018-07-25T02:47:16.675Z,12.00
2018-07-25T02:48:16.648Z,12.00
2018-07-25T02:49:16.628Z,12.00
2018-07-25T02:50:16.608Z,16.00
2018-07-25T02:51:16.589Z,20.00
2018-07-25T02:52:16.566Z,20.00
2018-07-25T02:53:16.545Z,24.00
2018-07-25T02:54:16.523Z,24.00
2018-07-25T02:55:16.503Z,28.00
2018-07-25T02:56:16.480Z,32.00
2018-07-25T02:57:16.460Z,36.00
2018-07-25T02:58:16.447Z,44.00
2018-07-25T02:59:16.419Z,48.00
2018-07-25T03:00:16.397Z,52.00
2018-07-25T03:01:16.376Z,60.00
2018-07-25T03:02:16.361Z,68.00
2018-07-25T03:03:16.337Z,76.00
2018-07-25T03:04:16.315Z,84.00
2018-07-25T03:05:16.293Z,96.00
2018-07-25T03:06:16.273Z,108.00
2018-07-25T03:07:16.254Z,120.00
2018-07-25T03:08:16.230Z,136.00
2018-07-25T03:09:16.209Z,148.00
2018-07-25T03:10:16.341Z,164.00
2018-07-25T03:11:16.175Z,180.00
2018-07-25T03:12:16.145Z,200.00
2018-07-25T03:13:16.126Z,224.00
2018-07-25T03:14:16.107Z,244.00
2018-07-25T03:15:16.084Z,264.00
2018-07-25T03:16:16.062Z,292.00
2018-07-25T03:17:16.041Z,320.00
2018-07-25T03:18:16.019Z,348.00
2018-07-25T03:19:16.037Z,376.00
2018-07-25T03:20:15.975Z,408.00
2018-07-25T03:21:15.955Z,444.00
2018-07-25T03:22:15.940Z,480.00
2018-07-25T03:23:15.918Z,512.00
2018-07-25T03:24:15.894Z,552.00
2018-07-25T03:25:15.872Z,588.00
2018-07-25T03:26:15.850Z,632.00
2018-07-25T03:27:15.829Z,672.00
2018-07-25T03:28:15.856Z,716.00
2018-07-25T03:29:15.786Z,760.00
2018-07-25T03:30:15.768Z,808.00
2018-07-25T03:31:15.756Z,860.00
2018-07-25T03:32:15.724Z,904.00
2018-07-25T03:33:15.705Z,956.00
2018-07-25T03:34:15.682Z,1004.00
2018-07-25T03:35:15.671Z,1056.00
2018-07-25T03:36:15.638Z,1108.00
2018-07-25T03:37:15.616Z,1156.00
2018-07-25T03:38:15.644Z,1200.00
2018-07-25T03:39:15.577Z,1244.00
2018-07-25T03:40:15.560Z,1288.00
2018-07-25T03:41:15.538Z,1336.00
2018-07-25T03:42:15.512Z,1388.00
2018-07-25T03:43:15.492Z,1440.00
2018-07-25T03:44:15.473Z,1500.00
2018-07-25T03:45:15.600Z,1568.00
2018-07-25T03:46:15.428Z,1644.00
2018-07-25T03:47:15.410Z,1728.00
2018-07-25T03:48:15.388Z,1816.00
2018-07-25T03:49:15.367Z,1908.00
2018-07-25T03:50:15.346Z,1996.00
2018-07-25T03:51:15.327Z,2084.00
2018-07-25T03:52:15.305Z,2168.00
2018-07-25T03:53:15.283Z,2248.00
2018-07-25T03:54:15.282Z,2324.00
2018-07-25T03:55:15.240Z,2392.00
2018-07-25T03:56:15.218Z,2464.00
2018-07-25T03:57:15.198Z,2548.00
2018-07-25T03:58:15.178Z,2628.00
2018-07-25T03:59:15.159Z,2732.00
2018-07-25T04:00:15.141Z,2864.00
2018-07-25T04:01:15.116Z,3020.00
2018-07-25T04:02:15.097Z,3168.00
2018-07-25T04:03:15.077Z,3288.00
2018-07-25T04:04:15.054Z,3404.00
2018-07-25T04:05:15.034Z,3512.00
2018-07-25T04:06:15.014Z,3628.00
2018-07-25T04:07:14.990Z,3748.00
2018-07-25T04:08:14.985Z,3880.00
2018-07-25T04:09:15.021Z,4024.00
2018-07-25T04:10:14.932Z,4176.00
2018-07-25T04:11:14.909Z,4320.00
2018-07-25T04:12:14.887Z,4480.00
2018-07-25T04:13:14.871Z,4576.00
2018-07-25T04:14:14.853Z,4628.00
2018-07-25T04:15:14.828Z,4736.00
2018-07-25T04:16:14.807Z,4988.00
2018-07-25T04:17:14.785Z,5200.00
2018-07-25T04:18:14.773Z,5228.00
2018-07-25T04:19:14.748Z,5408.00
2018-07-25T04:20:14.723Z,5752.00
2018-07-25T04:21:14.705Z,6168.00
2018-07-25T04:22:14.686Z,6536.00
2018-07-25T04:23:14.667Z,6772.00
2018-07-25T04:24:14.646Z,6996.00
2018-07-25T04:25:14.625Z,6944.00
2018-07-25T04:26:14.605Z,6740.00
2018-07-25T04:27:14.585Z,6824.00
2018-07-25T04:28:14.564Z,7036.00
2018-07-25T04:29:14.545Z,7276.00
2018-07-25T04:30:14.527Z,7548.00
2018-07-25T04:31:14.507Z,7896.00
2018-07-25T04:32:14.487Z,8288.00
2018-07-25T04:33:14.471Z,8732.00
2018-07-25T04:34:14.445Z,9216.00
2018-07-25T04:35:14.426Z,9964.00
2018-07-25T04:36:14.406Z,11228.00
2018-07-25T04:37:14.386Z,12264.00
2018-07-25T04:38:14.369Z,12628.00
2018-07-25T04:39:14.348Z,12868.00
2018-07-25T04:40:14.335Z,13080.00
2018-07-25T04:41:14.310Z,13288.00
2018-07-25T04:42:14.288Z,13464.00
2018-07-25T04:43:14.270Z,13628.00
2018-07-25T04:44:14.455Z,13740.00
2018-07-25T04:45:14.230Z,13804.00
2018-07-25T04:46:14.282Z,13796.00
2018-07-25T04:47:14.398Z,13788.00
2018-07-25T04:48:14.377Z,13900.00
2018-07-25T04:49:14.359Z,13908.00
2018-07-25T04:50:14.138Z,14176.00
2018-07-25T04:51:14.120Z,14336.00
2018-07-25T04:52:14.100Z,14400.00
2018-07-25T04:53:14.083Z,14528.00
2018-07-25T04:54:14.064Z,14560.00
2018-07-25T04:55:14.068Z,14592.00
2018-07-25T04:56:14.159Z,14624.00
2018-07-25T04:57:14.008Z,14624.00
2018-07-25T04:58:13.992Z,13500.00
2018-07-25T04:59:14.178Z,11428.00
2018-07-25T05:00:13.955Z,11744.00
2018-07-25T05:01:13.938Z,10236.00
2018-07-25T05:02:13.923Z,10324.00
2018-07-25T05:03:13.901Z,10080.00
2018-07-25T05:04:13.884Z,9720.00
2018-07-25T05:05:13.865Z,9636.00
2018-07-25T05:06:13.850Z,9560.00
2018-07-25T05:07:13.908Z,9400.00
2018-07-25T05:08:13.812Z,9312.00
2018-07-25T05:09:13.795Z,9236.00
2018-07-25T05:10:13.783Z,9044.00
2018-07-25T05:11:13.763Z,9264.00
2018-07-25T05:12:13.743Z,9096.00
2018-07-25T05:13:13.726Z,9136.00
2018-07-25T05:14:13.709Z,9228.00
2018-07-25T05:15:13.690Z,9444.00
2018-07-25T05:16:13.669Z,9692.00
2018-07-25T05:17:13.651Z,9616.00
2018-07-25T05:18:13.639Z,9580.00
2018-07-25T05:19:13.620Z,9556.00
2018-07-25T05:20:13.602Z,9716.00
2018-07-25T05:21:13.581Z,10128.00
2018-07-25T05:22:13.562Z,10464.00
2018-07-25T05:23:13.600Z,10624.00
2018-07-25T05:24:13.526Z,10712.00
2018-07-25T05:25:13.507Z,11364.00
2018-07-25T05:26:13.488Z,13348.00
2018-07-25T05:27:13.469Z,11588.00
2018-07-25T05:28:13.451Z,11592.00
2018-07-25T05:29:13.432Z,12172.00
2018-07-25T05:30:13.522Z,12132.00
2018-07-25T05:31:13.398Z,12920.00
2018-07-25T05:32:13.379Z,12676.00
2018-07-25T05:33:13.361Z,12452.00
2018-07-25T05:34:13.344Z,12380.00
2018-07-25T05:35:13.324Z,12480.00
2018-07-25T05:36:13.304Z,12688.00
2018-07-25T05:37:13.286Z,13512.00
2018-07-25T05:38:13.308Z,19712.00
2018-07-25T05:39:13.250Z,16448.00
2018-07-25T05:40:13.231Z,15880.00
2018-07-25T05:41:13.227Z,17408.00
2018-07-25T05:42:13.195Z,16928.00
2018-07-25T05:43:13.180Z,19904.00
2018-07-25T05:44:13.164Z,26336.00
2018-07-25T05:45:13.141Z,26368.00
2018-07-25T05:46:13.123Z,23104.00
2018-07-25T05:47:13.104Z,19456.00
2018-07-25T05:48:13.091Z,17632.00
2018-07-25T05:49:13.071Z,18112.00
2018-07-25T05:50:13.055Z,24064.00
2018-07-25T05:51:13.036Z,17728.00
2018-07-25T05:52:13.017Z,26880.00
2018-07-25T05:53:12.998Z,21120.00
2018-07-25T05:54:12.985Z,16316.00
2018-07-25T05:55:12.964Z,16560.00
2018-07-25T05:56:13.151Z,16704.00
2018-07-25T05:57:12.932Z,19808.00
2018-07-25T05:58:12.913Z,15920.00
2018-07-25T05:59:12.896Z,15484.00
2018-07-25T06:00:12.877Z,15252.00
2018-07-25T06:01:12.857Z,14756.00
2018-07-25T06:02:12.843Z,15144.00
2018-07-25T06:03:12.898Z,19936.00
2018-07-25T06:04:12.856Z,15284.00
2018-07-25T06:05:12.791Z,14608.00
2018-07-25T06:06:12.890Z,12892.00
2018-07-25T06:07:12.755Z,12848.00
2018-07-25T06:08:12.737Z,12148.00
2018-07-25T06:09:12.720Z,11836.00
2018-07-25T06:10:12.707Z,11656.00
2018-07-25T06:11:12.693Z,11636.00
2018-07-25T06:12:12.681Z,11668.00
2018-07-25T06:13:12.655Z,11752.00
2018-07-25T06:14:12.675Z,11872.00
2018-07-25T06:15:12.633Z,11952.00
2018-07-25T06:16:12.599Z,11996.00
2018-07-25T06:17:12.580Z,12040.00
2018-07-25T06:18:12.564Z,12108.00
2018-07-25T06:19:12.549Z,12256.00
2018-07-25T06:20:12.531Z,12532.00
2018-07-25T06:21:12.508Z,13120.00
2018-07-25T06:22:12.494Z,14116.00
2018-07-25T06:23:12.475Z,18304.00
2018-07-25T06:24:12.456Z,18368.00
2018-07-25T06:25:12.457Z,16704.00
2018-07-25T06:26:12.421Z,15412.00
2018-07-25T06:27:12.402Z,14096.00
2018-07-25T06:28:12.383Z,13936.00
2018-07-25T06:29:12.367Z,13952.00
2018-07-25T06:30:12.348Z,14216.00
2018-07-25T06:31:12.348Z,15288.00
2018-07-25T06:32:12.311Z,15328.00
2018-07-25T06:33:12.297Z,17124.00
2018-07-25T06:34:12.278Z,18656.00
2018-07-25T06:35:12.260Z,16136.00
2018-07-25T06:36:12.241Z,24128.00
2018-07-25T06:37:12.224Z,28096.00
2018-07-25T06:38:12.208Z,26208.00
2018-07-25T06:39:12.189Z,25536.00
2018-07-25T06:40:12.173Z,24704.00
2018-07-25T06:41:12.153Z,24480.00
2018-07-25T06:42:12.136Z,24096.00
2018-07-25T06:43:12.369Z,23680.00
2018-07-25T06:44:12.102Z,23712.00
2018-07-25T06:45:12.084Z,25024.00
2018-07-25T06:46:12.067Z,32096.00
2018-07-25T06:47:12.252Z,41728.00
2018-07-25T06:48:12.236Z,45184.00
2018-07-25T06:49:12.220Z,40736.00
2018-07-25T06:50:12.209Z,40256.00
2018-07-25T06:51:12.194Z,42048.00
2018-07-25T06:52:12.184Z,44672.00
2018-07-25T06:53:12.158Z,45824.00
2018-07-25T06:54:12.142Z,47040.00
2018-07-25T06:55:12.132Z,48768.00
2018-07-25T06:56:12.111Z,49440.00
2018-07-25T06:57:12.109Z,49088.00
2018-07-25T06:58:12.081Z,48992.00
2018-07-25T06:59:12.068Z,47776.00
2018-07-25T07:00:14.940Z,49568.00
2018-07-25T07:01:12.051Z,52736.00
2018-07-25T07:02:12.025Z,53024.00
2018-07-25T07:03:11.810Z,50816.00
2018-07-25T07:04:11.797Z,50880.00
2018-07-25T07:05:11.778Z,54528.00
2018-07-25T07:06:11.766Z,57280.00
2018-07-25T07:07:11.956Z,54624.00
2018-07-25T07:08:11.940Z,55584.00
2018-07-25T07:09:11.929Z,55648.00
2018-07-25T07:10:11.916Z,56192.00
2018-07-25T07:11:11.700Z,55936.00
2018-07-25T07:12:11.735Z,54944.00
2018-07-25T07:13:11.881Z,56768.00
2018-07-25T07:14:13.078Z,57408.00
2018-07-25T07:15:11.691Z,57344.00
2018-07-25T07:16:12.445Z,56544.00
2018-07-25T07:17:11.827Z,54720.00
2018-07-25T07:18:11.608Z,55584.00
2018-07-25T07:19:11.799Z,57664.00
2018-07-25T07:20:11.791Z,59488.00
2018-07-25T07:21:11.577Z,59744.00
2018-07-25T07:22:11.764Z,58208.00
2018-07-25T07:23:11.551Z,57856.00
2018-07-25T07:24:11.861Z,56576.00
2018-07-25T07:25:11.731Z,56832.00
2018-07-25T07:26:11.714Z,56224.00
2018-07-25T07:27:11.702Z,54304.00
2018-07-25T07:28:53.853Z,58688.00
2018-07-25T07:29:53.842Z,62656.00
2018-07-25T07:30:53.829Z,62528.00
2018-07-25T07:31:53.820Z,61024.00
2018-07-25T07:32:53.619Z,63648.00
2018-07-25T07:33:53.602Z,64256.00
2018-07-25T07:35:35.945Z,60448.00
2018-07-25T07:36:35.934Z,64384.00
2018-07-25T07:39:42.408Z,64416.00
2018-07-25T07:40:42.195Z,66016.00
2018-07-25T07:41:42.386Z,67808.00
2018-07-25T07:42:42.378Z,66688.00
2018-07-25T07:43:42.164Z,66304.00
2018-07-25T07:44:42.360Z,64576.00
2018-07-25T07:46:24.504Z,65888.00
2018-07-25T07:47:24.493Z,64160.00
2018-07-25T07:48:24.282Z,62176.00
2018-07-25T07:49:24.272Z,61312.00
2018-07-25T07:50:24.265Z,63232.00
2018-07-25T07:51:24.452Z,65984.00
2018-07-25T07:52:26.863Z,67648.00
2018-07-25T07:53:24.229Z,67776.00
2018-07-25T07:54:27.041Z,68640.00
2018-07-25T07:55:24.408Z,66624.00
2018-07-25T07:56:24.399Z,67904.00
2018-07-25T07:57:24.394Z,68640.00
2018-07-25T07:58:24.226Z,69952.00
2018-07-25T07:59:24.204Z,71296.00
2018-07-25T08:00:24.359Z,66400.00
2018-07-25T08:01:24.349Z,61984.00
2018-07-25T08:02:24.137Z,67424.00
2018-07-25T08:03:24.136Z,69920.00
2018-07-25T08:04:24.116Z,66720.00
2018-07-25T08:05:24.314Z,65664.00
2018-07-25T08:06:24.097Z,67840.00
2018-07-25T08:07:24.087Z,68352.00
2018-07-25T08:08:24.279Z,69312.00
2018-07-25T08:09:24.277Z,69792.00
2018-07-25T08:10:24.061Z,70240.00
2018-07-25T08:11:24.050Z,69216.00
2018-07-25T08:12:24.041Z,68448.00
2018-07-25T08:13:24.031Z,68224.00
2018-07-25T08:14:24.225Z,69120.00
2018-07-25T08:15:24.014Z,70848.00
2018-07-25T08:16:24.003Z,73184.00
2018-07-25T08:17:24.199Z,73280.00
2018-07-25T08:18:23.985Z,71296.00
2018-07-25T08:19:24.186Z,69728.00
2018-07-25T08:20:23.968Z,69504.00
2018-07-25T08:21:23.969Z,72480.00
2018-07-25T08:22:23.953Z,72736.00
2018-07-25T08:23:23.953Z,72896.00
2018-07-25T08:24:23.936Z,75104.00
2018-07-25T08:25:23.931Z,73984.00
2018-07-25T08:26:23.918Z,73408.00
2018-07-25T08:27:24.114Z,74656.00
2018-07-25T08:28:24.401Z,76736.00
2018-07-25T08:29:24.094Z,75520.00
2018-07-25T08:30:23.896Z,75968.00
2018-07-25T08:31:23.877Z,75200.00
2018-07-25T08:32:23.869Z,75456.00
2018-07-25T08:33:24.061Z,78400.00
2018-07-25T08:34:23.865Z,79520.00
2018-07-25T08:35:24.048Z,76128.00
2018-07-25T08:36:23.839Z,78144.00
2018-07-25T08:37:23.826Z,83008.00
2018-07-25T08:38:23.823Z,81760.00
2018-07-25T08:39:23.810Z,83520.00
2018-07-25T08:40:24.008Z,85600.00
2018-07-25T08:41:23.800Z,82976.00
2018-07-25T08:42:23.790Z,83520.00
2018-07-25T08:43:23.783Z,86016.00
2018-07-25T08:44:23.775Z,86240.00
2018-07-25T08:45:23.766Z,82976.00
2018-07-25T08:46:23.762Z,84352.00
2018-07-25T08:47:23.751Z,87456.00
2018-07-25T08:48:23.748Z,87200.00
2018-07-25T08:49:23.940Z,87424.00
2018-07-25T08:50:23.730Z,88768.00
2018-07-25T08:51:23.722Z,87712.00
2018-07-25T08:52:23.745Z,87616.00
2018-07-25T08:53:23.713Z,90304.00
2018-07-25T08:54:23.699Z,91552.00
2018-07-25T08:55:23.691Z,90880.00
2018-07-25T08:56:23.891Z,93632.00
2018-07-25T08:57:23.679Z,89792.00
2018-07-25T08:58:23.673Z,86368.00
2018-07-25T08:59:23.663Z,89664.00
2018-07-25T09:00:25.129Z,91232.00
2018-07-25T09:01:24.457Z,90016.00
2018-07-25T09:02:23.843Z,88480.00
2018-07-25T09:03:23.836Z,90560.00
2018-07-25T09:04:23.630Z,92096.00
2018-07-25T09:05:23.822Z,92192.00
2018-07-25T09:06:23.639Z,95104.00
2018-07-25T09:07:23.610Z,93568.00
2018-07-25T09:08:23.599Z,93600.00
2018-07-25T09:09:23.595Z,94496.00
2018-07-25T09:10:23.591Z,93152.00
2018-07-25T09:11:23.629Z,92960.00
2018-07-25T09:12:23.574Z,95520.00
2018-07-25T09:13:23.579Z,97632.00
2018-07-25T09:14:23.559Z,97792.00
2018-07-25T09:15:23.551Z,97984.00
2018-07-25T09:16:23.544Z,98144.00
2018-07-25T09:17:23.540Z,94016.00
2018-07-25T09:18:23.535Z,92800.00
2018-07-25T09:19:23.527Z,94784.00
2018-07-25T09:20:23.519Z,95104.00
2018-07-25T09:21:23.513Z,96224.00
2018-07-25T09:22:23.508Z,97984.00
2018-07-25T09:23:23.702Z,96960.00
2018-07-25T09:24:23.494Z,95936.00
2018-07-25T09:25:23.809Z,96256.00
2018-07-25T09:26:23.479Z,94432.00
2018-07-25T09:27:23.472Z,92960.00
2018-07-25T09:28:23.466Z,95904.00
2018-07-25T09:29:23.461Z,99712.00
2018-07-25T09:30:23.456Z,99328.00
2018-07-25T09:31:23.449Z,99776.00
2018-07-25T09:32:23.443Z,99872.00
2018-07-25T09:33:23.435Z,96160.00
2018-07-25T09:34:23.531Z,96096.00
2018-07-25T09:35:23.422Z,93984.00
2018-07-25T09:36:23.417Z,93408.00
2018-07-25T09:37:23.416Z,94720.00
2018-07-25T09:38:23.405Z,92576.00
2018-07-25T09:39:23.403Z,91520.00
2018-07-25T09:40:23.395Z,93024.00
2018-07-25T09:41:23.395Z,92768.00
2018-07-25T09:42:23.385Z,94208.00
2018-07-25T09:43:23.378Z,95072.00
2018-07-25T09:44:23.373Z,94976.00
2018-07-25T09:45:23.365Z,92960.00
2018-07-25T09:46:23.362Z,92096.00
2018-07-25T09:47:23.355Z,93408.00
2018-07-25T09:48:23.350Z,92672.00
2018-07-25T09:49:23.347Z,94560.00
2018-07-25T09:50:23.340Z,93632.00
2018-07-25T09:51:23.334Z,93312.00
2018-07-25T09:52:23.327Z,95136.00
2018-07-25T09:53:23.322Z,97120.00
2018-07-25T09:54:23.319Z,95200.00
2018-07-25T09:55:23.311Z,93216.00
2018-07-25T09:56:23.305Z,92512.00
2018-07-25T09:57:23.298Z,94304.00
2018-07-25T09:58:23.292Z,95680.00
2018-07-25T09:59:23.286Z,94944.00
2018-07-25T10:00:23.284Z,95520.00
2018-07-25T10:01:23.279Z,96384.00
2018-07-25T10:02:23.286Z,96800.00
2018-07-25T10:03:23.282Z,95488.00
2018-07-25T10:04:23.262Z,94560.00
2018-07-25T10:05:23.263Z,95360.00
2018-07-25T10:06:23.257Z,93440.00
2018-07-25T10:07:23.300Z,93632.00
2018-07-25T10:08:23.257Z,94016.00
2018-07-25T10:09:23.235Z,93344.00
2018-07-25T10:10:23.230Z,92352.00
2018-07-25T10:11:23.251Z,93088.00
2018-07-25T10:12:23.223Z,92608.00
2018-07-25T10:13:23.216Z,92832.00
2018-07-25T10:14:23.212Z,94048.00
2018-07-25T10:15:23.230Z,95904.00
2018-07-25T10:16:23.225Z,95072.00
2018-07-25T10:17:23.195Z,91968.00
2018-07-25T10:18:23.216Z,90432.00
2018-07-25T10:19:23.184Z,91872.00
2018-07-25T10:20:23.178Z,91008.00
2018-07-25T10:21:23.177Z,90368.00
2018-07-25T10:22:23.173Z,89440.00
2018-07-25T10:23:23.186Z,89824.00
2018-07-25T10:24:23.163Z,92352.00
2018-07-25T10:25:23.157Z,90048.00
2018-07-25T10:26:23.186Z,88928.00
2018-07-25T10:27:23.271Z,91136.00
2018-07-25T10:28:23.148Z,92480.00
2018-07-25T10:29:23.138Z,95200.00
2018-07-25T10:30:23.129Z,94560.00
2018-07-25T10:31:23.126Z,95936.00
2018-07-25T10:32:23.119Z,98048.00
2018-07-25T10:33:23.127Z,96032.00
2018-07-25T10:34:23.133Z,91072.00
2018-07-25T10:35:23.108Z,92384.00
2018-07-25T10:36:23.111Z,94368.00
2018-07-25T10:37:23.095Z,93216.00
2018-07-25T10:38:23.090Z,94752.00
2018-07-25T10:39:23.089Z,95680.00
2018-07-25T10:40:23.091Z,94592.00
2018-07-25T10:41:23.075Z,94560.00
2018-07-25T10:42:23.094Z,94016.00
2018-07-25T10:43:23.066Z,94272.00
2018-07-25T10:44:23.069Z,96064.00
2018-07-25T10:45:23.057Z,97248.00
2018-07-25T10:46:23.051Z,95616.00
2018-07-25T10:47:23.045Z,95040.00
2018-07-25T10:48:23.041Z,98720.00
2018-07-25T10:49:23.034Z,99744.00
2018-07-25T10:50:23.030Z,100032.00
2018-07-25T10:51:23.027Z,98592.00
2018-07-25T10:52:23.021Z,100384.00
2018-07-25T10:53:23.018Z,98912.00
2018-07-25T10:54:23.013Z,96288.00
2018-07-25T10:55:23.010Z,99872.00
2018-07-25T10:56:23.003Z,100960.00
2018-07-25T10:57:22.997Z,98176.00
2018-07-25T10:58:22.992Z,99520.00
2018-07-25T10:59:22.988Z,101664.00
2018-07-25T11:00:22.982Z,99136.00
2018-07-25T11:01:22.999Z,96928.00
2018-07-25T11:02:22.976Z,97280.00
2018-07-25T11:03:22.970Z,101984.00
2018-07-25T11:04:22.965Z,100128.00
2018-07-25T11:05:22.960Z,100000.00
2018-07-25T11:06:22.955Z,98976.00
2018-07-25T11:07:22.950Z,97152.00
2018-07-25T11:08:22.951Z,95744.00
2018-07-25T11:09:22.943Z,95232.00
2018-07-25T11:10:22.941Z,94400.00
2018-07-25T11:11:22.935Z,96288.00
2018-07-25T11:12:22.937Z,96608.00
2018-07-25T11:13:22.926Z,100000.00
2018-07-25T11:14:22.922Z,101056.00
2018-07-25T11:15:22.917Z,101856.00
2018-07-25T11:16:22.916Z,100416.00
2018-07-25T11:17:22.909Z,99488.00
2018-07-25T11:18:22.904Z,100320.00
2018-07-25T11:19:22.898Z,101984.00
2018-07-25T11:20:22.895Z,101024.00
2018-07-25T11:21:22.894Z,101024.00
2018-07-25T11:22:22.891Z,99040.00
2018-07-25T11:23:22.896Z,97216.00
2018-07-25T11:24:22.882Z,98528.00
2018-07-25T11:25:22.877Z,102016.00
2018-07-25T11:26:22.875Z,102208.00
2018-07-25T11:27:22.868Z,101248.00
2018-07-25T11:28:22.865Z,105216.00
2018-07-25T11:29:22.872Z,107424.00
2018-07-25T11:30:22.858Z,107904.00
2018-07-25T11:31:22.853Z,103968.00
2018-07-25T11:32:22.890Z,99936.00
2018-07-25T11:33:22.861Z,104640.00
2018-07-25T11:34:22.846Z,104512.00
2018-07-25T11:35:22.849Z,100736.00
2018-07-25T11:36:22.841Z,101536.00
2018-07-25T11:37:22.840Z,99872.00
2018-07-25T11:38:22.829Z,101024.00
2018-07-25T11:39:22.831Z,104000.00
2018-07-25T11:40:22.823Z,106048.00
2018-07-25T11:41:22.821Z,107072.00
2018-07-25T11:42:22.823Z,108000.00
2018-07-25T11:43:22.818Z,106976.00
2018-07-25T11:44:22.818Z,108480.00
2018-07-25T11:45:22.811Z,111392.00
2018-07-25T11:46:22.809Z,110688.00
2018-07-25T11:47:22.802Z,108480.00
2018-07-25T11:48:22.799Z,104864.00
2018-07-25T11:49:22.796Z,101984.00
2018-07-25T11:50:22.835Z,108096.00
2018-07-25T11:51:22.794Z,109888.00
2018-07-25T11:52:22.785Z,106944.00
2018-07-25T11:53:22.786Z,108544.00
2018-07-25T11:54:22.786Z,108864.00
2018-07-25T11:55:22.812Z,108320.00
2018-07-25T11:56:22.785Z,110048.00
2018-07-25T11:57:22.773Z,110368.00
2018-07-25T11:58:22.774Z,112448.00
2018-07-25T11:59:22.768Z,115360.00
2018-07-25T12:00:22.765Z,115360.00
2018-07-25T12:01:22.803Z,116384.00
2018-07-25T12:02:22.765Z,113856.00
2018-07-25T12:03:22.758Z,109728.00
2018-07-25T12:04:22.756Z,104896.00
2018-07-25T12:05:22.760Z,100384.00
2018-07-25T12:06:22.768Z,96192.00
2018-07-25T12:07:22.781Z,96512.00
2018-07-25T12:08:22.750Z,99584.00
2018-07-25T12:09:22.744Z,108320.00
2018-07-25T12:10:22.748Z,112736.00
2018-07-25T12:11:22.739Z,115776.00